createdAt,value
2018-05-14T00:00:19.739Z,16.50
2018-05-14T00:02:46.006Z,18.50
2018-05-14T00:05:11.935Z,16.42
2018-05-14T00:07:37.896Z,18.20
2018-05-14T00:10:04.611Z,18.60
2018-05-14T00:12:30.538Z,18.40
2018-05-14T00:14:57.339Z,19.00
2018-05-14T00:17:23.512Z,21.23
2018-05-14T00:19:51.233Z,19.95
2018-05-14T00:22:17.450Z,21.62
2018-05-14T00:24:43.867Z,23.90
2018-05-14T00:27:10.638Z,22.77
2018-05-14T00:29:36.654Z,21.65
2018-05-14T00:32:02.858Z,26.95
2018-05-14T00:34:28.982Z,22.20
2018-05-14T00:36:54.954Z,25.35
2018-05-14T00:39:21.606Z,24.93
2018-05-14T00:41:47.557Z,25.55
2018-05-14T00:44:13.546Z,27.97
2018-05-14T00:46:39.544Z,25.00
2018-05-14T00:49:05.485Z,27.27
2018-05-14T00:51:32.553Z,30.60
2018-05-14T00:53:58.814Z,25.33
2018-05-14T00:56:25.033Z,30.17
2018-05-14T00:58:50.994Z,30.15
2018-05-14T01:01:16.937Z,28.33
2018-05-14T01:03:44.742Z,30.97
2018-05-14T01:06:10.659Z,30.83
2018-05-14T01:08:36.649Z,31.00
2018-05-14T01:11:02.766Z,31.27
2018-05-14T01:13:28.787Z,29.60
2018-05-14T01:15:55.000Z,27.87
2018-05-14T01:18:20.981Z,32.42
2018-05-14T01:20:47.214Z,31.07
2018-05-14T01:23:13.136Z,29.17
2018-05-14T01:25:39.058Z,28.47
2018-05-14T01:28:05.078Z,31.23
2018-05-14T01:30:30.971Z,25.62
2018-05-14T01:32:57.182Z,26.23
2018-05-14T01:35:23.378Z,21.45
2018-05-14T01:37:49.666Z,24.10
2018-05-14T01:40:16.222Z,24.92
2018-05-14T01:42:42.472Z,22.30
2018-05-14T01:45:08.434Z,22.35
2018-05-14T01:47:34.363Z,22.07
2018-05-14T01:50:00.328Z,23.93
2018-05-14T01:52:26.287Z,22.50
2018-05-14T01:54:52.214Z,22.07
2018-05-14T01:57:18.412Z,23.07
2018-05-14T01:59:44.358Z,20.88
2018-05-14T02:02:10.325Z,19.57
2018-05-14T02:04:36.240Z,20.40
2018-05-14T02:07:02.184Z,19.23
2018-05-14T02:09:28.103Z,21.07
2018-05-14T02:11:54.036Z,18.10
2018-05-14T02:14:19.970Z,16.77
2018-05-14T02:16:45.919Z,18.00
2018-05-14T02:19:12.621Z,19.10
2018-05-14T02:21:38.529Z,18.00
2018-05-14T02:24:04.466Z,17.10
2018-05-14T02:26:30.412Z,18.50
2018-05-14T02:28:56.310Z,19.13
2018-05-14T02:31:22.207Z,18.87
2018-05-14T02:33:48.129Z,18.07
2018-05-14T02:36:14.057Z,18.77
2018-05-14T02:38:40.372Z,17.87
2018-05-14T02:41:06.295Z,18.55
2018-05-14T02:43:32.221Z,17.50
2018-05-14T02:45:58.155Z,15.57
2018-05-14T02:48:24.100Z,15.80
2018-05-14T02:50:50.000Z,17.33
2018-05-14T02:53:15.916Z,14.10
2018-05-14T02:55:41.839Z,15.77
2018-05-14T02:58:07.760Z,12.30
2018-05-14T03:00:33.677Z,12.90
2018-05-14T03:02:59.650Z,13.20
2018-05-14T03:05:25.616Z,12.57
2018-05-14T03:07:51.531Z,12.77
2018-05-14T03:10:17.697Z,13.40
2018-05-14T03:12:43.608Z,11.40
2018-05-14T03:15:09.594Z,11.63
2018-05-14T03:17:35.704Z,10.82
2018-05-14T03:20:01.613Z,14.60
2018-05-14T03:22:27.638Z,11.37
2018-05-14T03:24:54.326Z,10.48
2018-05-14T03:27:20.243Z,10.07
2018-05-14T03:29:46.154Z,10.90
2018-05-14T03:32:12.054Z,10.73
2018-05-14T03:34:38.037Z,9.77
2018-05-14T03:37:03.942Z,9.33
2018-05-14T03:39:29.849Z,10.67
2018-05-14T03:41:55.774Z,9.67
2018-05-14T03:44:21.665Z,10.23
2018-05-14T03:46:48.316Z,11.30
2018-05-14T03:49:14.197Z,11.48
2018-05-14T03:51:40.100Z,11.30
2018-05-14T03:54:06.015Z,11.20
2018-05-14T03:56:31.935Z,11.00
2018-05-14T03:58:57.846Z,11.20
2018-05-14T04:01:23.718Z,11.50
2018-05-14T04:03:49.639Z,10.77
2018-05-14T04:06:16.275Z,11.80
2018-05-14T04:08:42.203Z,10.85
2018-05-14T04:11:08.843Z,12.00
2018-05-14T04:13:35.494Z,10.20
2018-05-14T04:16:01.391Z,11.57
2018-05-14T04:18:27.298Z,11.97
2018-05-14T04:20:53.191Z,11.47
2018-05-14T04:23:19.106Z,11.97
2018-05-14T04:25:45.025Z,10.90
2018-05-14T04:28:10.942Z,13.83
2018-05-14T04:30:36.870Z,10.60
2018-05-14T04:33:02.758Z,11.63
2018-05-14T04:35:28.711Z,10.67
2018-05-14T04:37:54.603Z,10.60
2018-05-14T04:40:20.512Z,9.80
2018-05-14T04:42:47.175Z,9.40
2018-05-14T04:45:13.128Z,10.45
2018-05-14T04:47:39.071Z,9.73
2018-05-14T04:50:15.500Z,10.07
2018-05-14T04:52:42.115Z,8.50
2018-05-14T04:55:08.041Z,10.10
2018-05-14T04:57:33.947Z,9.10
2018-05-14T05:00:00.614Z,9.47
2018-05-14T05:02:26.512Z,10.07
2018-05-14T05:04:52.399Z,11.13
2018-05-14T05:07:18.317Z,9.47
2018-05-14T05:09:44.218Z,9.50
2018-05-14T05:12:10.148Z,9.60
2018-05-14T05:14:36.070Z,9.87
2018-05-14T05:17:02.028Z,10.40
2018-05-14T05:19:27.914Z,10.67
2018-05-14T05:21:53.840Z,10.37
2018-05-14T05:24:19.752Z,9.43
2018-05-14T05:26:45.683Z,10.57
2018-05-14T05:29:11.579Z,13.90
2018-05-14T05:31:37.506Z,9.50
2018-05-14T05:34:03.409Z,10.57
2018-05-14T05:36:29.286Z,8.77
2018-05-14T05:38:55.188Z,9.73
2018-05-14T05:41:21.095Z,9.50
2018-05-14T05:43:47.035Z,8.93
2018-05-14T05:46:12.930Z,9.43
2018-05-14T05:48:38.855Z,9.10
2018-05-14T05:51:04.751Z,10.00
2018-05-14T05:53:30.670Z,9.07
2018-05-14T05:55:56.557Z,8.60
2018-05-14T05:58:23.239Z,9.20
2018-05-14T06:00:49.132Z,8.70
2018-05-14T06:03:15.075Z,9.17
2018-05-14T06:05:40.954Z,9.83
2018-05-14T06:08:07.590Z,9.20
2018-05-14T06:10:34.295Z,14.75
2018-05-14T06:13:00.211Z,9.98
2018-05-14T06:15:26.130Z,8.30
2018-05-14T06:17:52.036Z,9.87
2018-05-14T06:20:17.963Z,9.87
2018-05-14T06:22:43.873Z,12.53
2018-05-14T06:25:09.825Z,9.90
2018-05-14T06:27:35.771Z,11.93
2018-05-14T06:30:01.663Z,11.83
2018-05-14T06:32:27.566Z,13.40
2018-05-14T06:34:53.473Z,10.87
2018-05-14T06:37:19.365Z,12.10
2018-05-14T06:39:46.031Z,10.97
2018-05-14T06:42:11.905Z,10.68
2018-05-14T06:44:37.829Z,9.90
2018-05-14T06:47:03.749Z,12.17
2018-05-14T06:49:29.697Z,13.20
2018-05-14T06:51:55.612Z,39.90
2018-05-14T06:54:21.540Z,13.93
2018-05-14T06:56:47.455Z,17.13
2018-05-14T06:59:14.092Z,15.03
2018-05-14T07:01:40.774Z,13.05
2018-05-14T07:04:06.675Z,11.30
2018-05-14T07:06:32.606Z,10.53
2018-05-14T07:08:58.513Z,12.33
2018-05-14T07:11:24.433Z,12.13
2018-05-14T07:13:50.355Z,14.70
2018-05-14T07:16:16.240Z,11.90
2018-05-14T07:18:42.170Z,10.03
2018-05-14T07:21:08.085Z,13.73
2018-05-14T07:23:34.054Z,12.23
2018-05-14T07:25:59.947Z,11.93
2018-05-14T07:28:25.862Z,15.97
2018-05-14T07:30:52.499Z,11.60
2018-05-14T07:33:18.431Z,10.57
2018-05-14T07:35:44.325Z,9.70
2018-05-14T07:38:10.219Z,14.83
2018-05-14T07:40:36.124Z,14.27
2018-05-14T07:43:02.026Z,11.33
2018-05-14T07:45:27.932Z,12.90
2018-05-14T07:47:53.834Z,12.77
2018-05-14T07:50:20.482Z,17.17
2018-05-14T07:52:46.379Z,12.02
2018-05-14T07:55:12.281Z,11.90
2018-05-14T07:57:38.161Z,12.27
2018-05-14T08:00:04.071Z,16.30
2018-05-14T08:02:29.972Z,13.97
2018-05-14T08:04:55.891Z,12.90
2018-05-14T08:07:21.772Z,14.70
2018-05-14T08:09:47.685Z,15.53
2018-05-14T08:12:13.594Z,15.20
2018-05-14T08:14:39.506Z,14.47
2018-05-14T08:17:05.405Z,15.03
2018-05-14T08:19:32.055Z,14.33
2018-05-14T08:21:57.991Z,15.45
2018-05-14T08:24:23.940Z,14.67
2018-05-14T08:26:49.857Z,17.03
2018-05-14T08:29:15.766Z,17.50
2018-05-14T08:31:41.687Z,16.70
2018-05-14T08:34:07.586Z,14.90
2018-05-14T08:36:33.523Z,16.23
2018-05-14T08:38:59.424Z,17.67
2018-05-14T08:41:26.059Z,17.77
2018-05-14T08:43:51.979Z,20.80
2018-05-14T08:46:18.612Z,17.67
2018-05-14T08:48:45.266Z,19.27
2018-05-14T08:51:11.143Z,18.40
2018-05-14T08:53:37.070Z,20.83
2018-05-14T08:56:02.950Z,20.50
2018-05-14T08:58:28.866Z,17.07
2018-05-14T09:00:54.768Z,17.37
2018-05-14T09:03:20.699Z,18.10
2018-05-14T09:05:46.587Z,16.40
2018-05-14T09:08:13.260Z,20.97
2018-05-14T09:10:39.200Z,17.98
2018-05-14T09:13:05.086Z,20.07
